Skip Navigation Links Skip Navigation Links

Current Weather

March Arb, Riverside, Calif.

For information only: do not use for flight planning or navigation.
Latest weather
Observation time Tuesday, October 19, 2021 12:58 AM PDT
Local time Tuesday, October 19, 2021 1:15 AM PDT
Flight conditions Visual Meteorological Conditions
Winds
Wind speed calm
Visibility 10 mi.
Sky condition
Ceiling unlimited
Sky clear
Temperature 52°F
Dewpoint 45°F
Altimeter 30.00 in.Hg
Derived measurements
Relative humidity 76%
Density altitude 1115 ft.
Remarks
Automated weather observing station with precipitation discriminator.
Sea-level-pressure sensor not operating.
Estimated.
METAR KRIV 190758Z 00000KT 10SM CLR 11/07 A3000 RMK AO2A SLPNO ALSTG ESTMD

Settings

Location code

InnerDrive.Weather 4.0.6770.0 Release CLR 4.0.30319.42000
Copyright ©2018 Inner Drive Technology. All rights reserved. Portions Copyright ©1986-2018 David Braverman.

Find weather

Site navigation


Skip Navigation Links

Place info

Page info

PayPal - The safer, easier way to pay online!

Return home.

Copyright ©2021 Inner Drive Technology. Purveyors of fine, hand-crafted computer software. Page printed 2021-10-19T08:15:58 UTC.